KAUW/AUW METAR and TAF weather

Enter ICAO airport designator
Station Type Date Time Source
KAUW METAR 2019/11/21 02:54 UTC NOAA

KAUW 210254Z AUTO 14010KT 6SM BR OVC008 04/02 A2996 RMK AO2 SLP160 T00390022 56013


Station Type Date Time Source
KAUW Decoded METAR 2019/11/21 02:54 UTC NOAA

WAUSAU DOWNTOWN AIRPORT, WI, United States (KAUW) 44-56N 089-37W 362M
Nov 20, 2019 - 09:54 PM EST / 2019.11.21 0254 UTC
Wind: from the SE (140 degrees) at 12 MPH (10 KT):0
Visibility: 6 mile(s):0
Sky conditions: overcast
Weather: mist
Temperature: 39.0 F (3.9 C)
Dew Point: 36.0 F (2.2 C)
Relative Humidity: 88%
Pressure (altimeter): 29.96 in. Hg (1014 hPa)
Pressure tendency: 0.04 inches (1.3 hPa) lower than three hours ago
ob: KAUW 210254Z AUTO 14010KT 6SM BR OVC008 04/02 A2996 RMK AO2 SLP160 T00390022 56013
cycle: 3

Station Type Date Time Source
KAUW TAF 2019/11/21 03:09 UTC NOAA

TAF
AMD KAUW 210306Z 2103/2124 14008G17KT 5SM BR OVC008 WS020/19035KT
FM210900 12005KT 2SM RA BR OVC004
FM211700 34011G20KT 4SM RA BR OVC006
FM212000 33014G24KT P6SM OVC015

Example: see airport list